Time;durP1;ratioP1;P1;durP2;ratioP2;P2;SDS_P1;SDS_P2;PMS_P1;PMS_P2;Temp;Humidity;BMP_temperature;BMP_pressure;BME280_temperature;BME280_humidity;BME280_pressure;Samples;Min_cycle;Max_cycle;Signal;HPM_P1;HPM_P2
2022/06/08 00:01:13;;;;;;;0.50;0.50;;;;;;;-140.05;100.00;61859.38;5091977;28;20318;-65
2022/06/08 00:03:45;;;;;;;0.30;0.30;;;;;;;-140.05;100.00;61859.38;5092324;28;20195;-68
2022/06/08 00:06:14;;;;;;;0.40;0.40;;;;;;;-140.05;100.00;61859.38;5091792;28;20275;-65
2022/06/08 00:08:41;;;;;;;0.30;0.30;;;;;;;-140.05;100.00;61859.38;5091823;28;20203;-63
2022/06/08 00:11:08;;;;;;;0.60;0.50;;;;;;;-140.05;100.00;61859.38;5092292;28;20203;-66
2022/06/08 00:13:36;;;;;;;0.63;0.30;;;;;;;-140.05;100.00;61859.38;5092258;28;20272;-66
2022/06/08 00:16:04;;;;;;;0.53;0.50;;;;;;;-140.05;100.00;61859.38;5092921;28;20288;-64
2022/06/08 00:18:31;;;;;;;0.30;0.30;;;;;;;-140.05;100.00;61859.38;5093618;28;20193;-67
2022/06/08 00:20:58;;;;;;;0.93;0.80;;;;;;;-140.05;100.00;61859.38;5091903;28;20258;-65
2022/06/08 00:23:25;;;;;;;0.20;0.20;;;;;;;-140.05;100.00;61859.38;5091848;28;20256;-69
2022/06/08 00:25:53;;;;;;;0.50;0.50;;;;;;;-140.05;100.00;61859.38;5091318;28;20698;-65
2022/06/08 00:28:20;;;;;;;0.77;0.60;;;;;;;-140.05;100.00;61859.38;5091625;28;20213;-62
2022/06/08 00:30:47;;;;;;;0.33;0.33;;;;;;;-140.05;100.00;61859.38;5091735;28;20244;-65
2022/06/08 00:33:15;;;;;;;4.53;0.40;;;;;;;-140.05;100.00;61859.38;5090788;28;20310;-66
2022/06/08 00:35:42;;;;;;;0.40;0.40;;;;;;;-140.05;100.00;61859.38;5091928;28;20199;-64
2022/06/08 00:38:08;;;;;;;0.50;0.50;;;;;;;-140.05;100.00;61859.38;5091199;28;20211;-66
2022/06/08 00:40:58;;;;;;;0.33;0.33;;;;;;;-140.05;100.00;61859.38;5092963;28;20179;-64
2022/06/08 00:43:26;;;;;;;0.30;0.30;;;;;;;-140.05;100.00;61859.38;5092044;28;20205;-64
2022/06/08 00:45:53;;;;;;;0.37;0.37;;;;;;;-140.05;100.00;61859.38;5091178;28;20317;-62
2022/06/08 00:48:23;;;;;;;0.40;0.40;;;;;;;-140.05;100.00;61859.38;5091385;28;20231;-64
2022/06/08 00:50:53;;;;;;;0.70;0.70;;;;;;;-140.05;100.00;61859.38;5090044;28;20575;-64
2022/06/08 00:53:27;;;;;;;0.40;0.30;;;;;;;-140.05;100.00;61859.38;5089576;28;20284;-62
2022/06/08 00:55:57;;;;;;;0.20;0.20;;;;;;;-140.05;100.00;61859.38;5090867;28;20663;-65
2022/06/08 00:58:27;;;;;;;0.20;0.20;;;;;;;-140.05;100.00;61859.38;5090616;28;20191;-68
2022/06/08 01:00:53;;;;;;;0.47;0.47;;;;;;;-140.05;100.00;61859.38;5090553;28;20670;-65
2022/06/08 01:03:21;;;;;;;0.57;0.57;;;;;;;-140.05;100.00;61859.38;5089426;28;20245;-67
2022/06/08 01:06:02;;;;;;;1.13;0.47;;;;;;;-140.05;100.00;61859.38;5089484;28;20222;-67
2022/06/08 01:08:38;;;;;;;0.40;0.40;;;;;;;-140.05;100.00;61859.38;5089583;28;20669;-64
2022/06/08 01:11:18;;;;;;;0.40;0.40;;;;;;;-140.05;100.00;61859.38;5089636;28;20644;-64
2022/06/08 01:13:46;;;;;;;0.87;0.83;;;;;;;-140.05;100.00;61859.38;5088866;28;20229;-67
2022/06/08 01:16:17;;;;;;;0.30;0.30;;;;;;;-140.05;100.00;61859.38;5089302;28;20199;-63
2022/06/08 01:18:46;;;;;;;0.63;0.63;;;;;;;-140.05;100.00;61859.38;5090218;28;20724;-65
2022/06/08 01:21:20;;;;;;;0.30;0.30;;;;;;;-140.05;100.00;61859.38;5089082;28;20537;-66
2022/06/08 01:23:59;;;;;;;0.20;0.20;;;;;;;-140.05;100.00;61859.38;5088778;28;20207;-66
2022/06/08 01:26:40;;;;;;;0.30;0.30;;;;;;;-140.05;100.00;61859.38;5090293;28;20309;-65
2022/06/08 01:29:21;;;;;;;0.43;0.43;;;;;;;-140.05;100.00;61859.38;5088480;28;20203;-62
2022/06/08 01:31:48;;;;;;;0.37;0.37;;;;;;;-140.05;100.00;61859.38;5090609;28;20530;-63
2022/06/08 01:34:43;;;;;;;0.37;0.37;;;;;;;-140.05;100.00;61859.38;5090402;28;20597;-64
2022/06/08 01:37:32;;;;;;;4.07;1.63;;;;;;;-140.05;100.00;61859.38;5089843;28;20967;-63
2022/06/08 01:40:12;;;;;;;0.50;0.50;;;;;;;-140.05;100.00;61859.38;5088603;28;20439;-63
2022/06/08 01:42:52;;;;;;;0.20;0.20;;;;;;;-140.05;100.00;61859.38;5090087;28;20440;-67
2022/06/08 01:45:52;;;;;;;0.47;0.47;;;;;;;-140.05;100.00;61859.38;5089019;28;20443;-66
2022/06/08 01:48:38;;;;;;;0.40;0.40;;;;;;;-140.05;100.00;61859.38;5088624;28;20441;-65
2022/06/08 01:51:07;;;;;;;1.57;0.40;;;;;;;-140.05;100.00;61859.38;5089969;28;20233;-64
2022/06/08 01:54:08;;;;;;;0.20;0.17;;;;;;;-140.05;100.00;61859.38;5089394;28;20469;-65
2022/06/08 01:57:02;;;;;;;0.40;0.40;;;;;;;-140.05;100.00;61859.38;5088941;28;20811;-63
2022/06/08 01:59:46;;;;;;;0.50;0.50;;;;;;;-140.05;100.00;61859.38;5088583;28;20440;-66
2022/06/08 02:02:22;;;;;;;0.43;0.43;;;;;;;-140.05;100.00;61859.38;5090716;28;20441;-63
2022/06/08 02:04:56;;;;;;;0.40;0.40;;;;;;;-140.05;100.00;61859.38;5089162;28;20488;-63
2022/06/08 02:07:40;;;;;;;0.57;0.57;;;;;;;-140.05;100.00;61859.38;5088656;28;20628;-66
2022/06/08 02:10:20;;;;;;;0.47;0.47;;;;;;;-140.05;100.00;61859.38;5088520;28;20444;-63
2022/06/08 02:12:56;;;;;;;0.27;0.27;;;;;;;-140.05;100.00;61859.38;5090292;28;20441;-64
2022/06/08 02:15:31;;;;;;;0.60;0.60;;;;;;;-140.05;100.00;61859.38;5088628;28;20444;-64
2022/06/08 02:18:06;;;;;;;0.37;0.37;;;;;;;-140.05;100.00;61859.38;5087962;28;20449;-64
2022/06/08 02:20:46;;;;;;;0.53;0.53;;;;;;;-140.05;100.00;61859.38;5088327;28;20437;-63
2022/06/08 02:23:26;;;;;;;0.40;0.40;;;;;;;-140.05;100.00;61859.38;5088388;28;20449;-64
2022/06/08 02:26:03;;;;;;;0.97;0.37;;;;;;;-140.05;100.00;61859.38;5087959;28;21092;-64
2022/06/08 02:28:35;;;;;;;0.67;0.63;;;;;;;-140.05;100.00;61859.38;5088130;28;20448;-65
2022/06/08 02:31:18;;;;;;;0.30;0.30;;;;;;;-140.05;100.00;61859.38;5088211;28;20260;-65
2022/06/08 02:36:58;;;;;;;1.00;0.97;;;;;;;-140.05;100.00;61859.38;5088455;28;20461;-65
2022/06/08 02:39:51;;;;;;;0.37;0.30;;;;;;;-140.05;100.00;61859.38;5087955;28;20528;-63
2022/06/08 02:42:24;;;;;;;0.63;0.40;;;;;;;-140.05;100.00;61859.38;5087914;28;20445;-65
2022/06/08 02:44:57;;;;;;;0.43;0.43;;;;;;;-140.05;100.00;61859.38;5088002;28;20465;-65
2022/06/08 02:47:30;;;;;;;0.40;0.40;;;;;;;-140.05;100.00;61859.38;5088041;28;20440;-63
2022/06/08 02:50:10;;;;;;;0.40;0.40;;;;;;;-140.05;100.00;61859.38;5090557;28;20498;-67
2022/06/08 02:52:45;;;;;;;0.40;0.40;;;;;;;-140.05;100.00;61859.38;5093500;28;20885;-65
2022/06/08 02:55:22;;;;;;;0.63;0.63;;;;;;;-140.05;100.00;61859.38;5099458;28;21246;-63
2022/06/08 02:57:58;;;;;;;0.33;0.33;;;;;;;-140.05;100.00;61859.38;5097708;28;20452;-62
2022/06/08 03:00:39;;;;;;;0.50;0.50;;;;;;;-140.05;100.00;61859.38;5091601;28;20494;-64
2022/06/08 03:03:15;;;;;;;0.30;0.30;;;;;;;-140.05;100.00;61859.38;5093256;28;20436;-62
2022/06/08 03:06:00;;;;;;;0.83;0.60;;;;;;;-140.05;100.00;61859.38;5091780;28;20817;-64
2022/06/08 03:08:34;;;;;;;0.30;0.30;;;;;;;-140.05;100.00;61859.38;5091421;28;20445;-65
2022/06/08 03:11:04;;;;;;;2.07;1.73;;;;;;;-140.05;100.00;61859.38;5092902;28;20438;-62
2022/06/08 03:13:41;;;;;;;0.83;0.60;;;;;;;-140.05;100.00;61859.38;5091587;28;20477;-63
2022/06/08 03:16:22;;;;;;;0.53;0.53;;;;;;;-140.05;100.00;61859.38;5091824;28;20809;-66
2022/06/08 03:18:50;;;;;;;0.30;0.30;;;;;;;-140.05;100.00;61859.38;5091703;28;20568;-64
2022/06/08 03:21:18;;;;;;;0.50;0.50;;;;;;;-140.05;100.00;61859.38;5093419;28;20431;-63
2022/06/08 03:23:46;;;;;;;0.17;0.17;;;;;;;-140.05;100.00;61859.38;5091844;28;20468;-67
2022/06/08 03:26:17;;;;;;;0.47;0.47;;;;;;;-140.05;100.00;61859.38;5092485;28;21021;-63
2022/06/08 03:28:44;;;;;;;0.43;0.43;;;;;;;-140.05;100.00;61859.38;5093420;28;20441;-66
2022/06/08 03:31:11;;;;;;;1.27;0.90;;;;;;;-140.05;100.00;61859.38;5091548;28;20454;-66
2022/06/08 03:33:39;;;;;;;0.67;0.67;;;;;;;-140.05;100.00;61859.38;5091169;28;20472;-65
2022/06/08 03:36:12;;;;;;;0.43;0.43;;;;;;;-140.05;100.00;61859.38;5091223;28;20444;-64
2022/06/08 03:38:42;;;;;;;0.57;0.57;;;;;;;-140.05;100.00;61859.38;5090609;28;20457;-63
2022/06/08 03:41:11;;;;;;;0.50;0.50;;;;;;;-140.05;100.00;61859.38;5090950;28;20443;-62
2022/06/08 03:43:38;;;;;;;0.50;0.33;;;;;;;-140.05;100.00;61859.38;5090971;28;20445;-65
2022/06/08 03:46:10;;;;;;;0.60;0.60;;;;;;;-140.05;100.00;61859.38;5090837;28;20437;-63
2022/06/08 03:48:39;;;;;;;2.00;1.23;;;;;;;-140.05;100.00;61859.38;5092041;28;20494;-64
2022/06/08 03:51:12;;;;;;;0.57;0.57;;;;;;;-140.05;100.00;61859.38;5090648;28;20440;-62
2022/06/08 03:53:51;;;;;;;0.40;0.40;;;;;;;-140.05;100.00;61859.38;5090648;28;20211;-65
2022/06/08 03:56:23;;;;;;;0.40;0.40;;;;;;;-140.05;100.00;61859.38;5092443;28;20515;-63
2022/06/08 03:58:52;;;;;;;0.30;0.30;;;;;;;-140.05;100.00;61859.38;5092153;28;20441;-64
2022/06/08 04:01:23;;;;;;;1.03;0.50;;;;;;;-140.05;100.00;61859.38;5092302;28;20230;-64
2022/06/08 04:03:55;;;;;;;0.43;0.43;;;;;;;-140.05;100.00;61859.38;5090688;28;20490;-63
2022/06/08 04:06:25;;;;;;;0.50;0.50;;;;;;;-140.05;100.00;61859.38;5090616;28;20670;-67
2022/06/08 04:08:54;;;;;;;0.47;0.47;;;;;;;-140.05;100.00;61859.38;5090347;28;20444;-64
2022/06/08 04:11:23;;;;;;;0.30;0.30;;;;;;;-140.05;100.00;61859.38;5090347;28;20745;-67
2022/06/08 04:13:52;;;;;;;1.40;0.87;;;;;;;-140.05;100.00;61859.38;5090089;28;20477;-66
2022/06/08 04:16:21;;;;;;;1.17;0.57;;;;;;;-140.05;100.00;61859.38;5090829;28;20441;-63
2022/06/08 04:18:49;;;;;;;0.60;0.60;;;;;;;-140.05;100.00;61859.38;5097259;28;20866;-65
2022/06/08 04:21:19;;;;;;;0.73;0.73;;;;;;;-140.05;100.00;61859.38;5088222;28;20281;-65
2022/06/08 04:23:51;;;;;;;0.20;0.20;;;;;;;-140.05;100.00;61859.38;5088909;28;20915;-64
2022/06/08 04:26:22;;;;;;;0.43;0.43;;;;;;;-140.05;100.00;61859.38;5088535;28;20508;-65
2022/06/08 04:28:54;;;;;;;2.03;0.90;;;;;;;-140.05;100.00;61859.38;5090349;28;20191;-64
2022/06/08 04:31:21;;;;;;;0.30;0.30;;;;;;;-140.05;100.00;61859.38;5109880;28;20455;-63
2022/06/08 04:33:54;;;;;;;0.83;0.60;;;;;;;-140.05;100.00;61859.38;5110639;28;20608;-63
2022/06/08 04:36:28;;;;;;;0.30;0.30;;;;;;;-140.05;100.00;61859.38;5110470;28;20221;-64
2022/06/08 04:38:55;;;;;;;0.60;0.60;;;;;;;-140.05;100.00;61859.38;5110388;28;20202;-62
2022/06/08 04:41:23;;;;;;;1.23;1.13;;;;;;;-140.05;100.00;61859.38;5110247;28;20289;-65
2022/06/08 04:43:53;;;;;;;0.50;0.50;;;;;;;-140.05;100.00;61859.38;5110477;28;20230;-62
2022/06/08 04:46:21;;;;;;;4.90;3.13;;;;;;;-140.05;100.00;61859.38;5109772;28;20994;-65
2022/06/08 04:48:51;;;;;;;7.83;5.53;;;;;;;-140.05;100.00;61859.38;5109809;28;20882;-61
2022/06/08 04:51:22;;;;;;;5.70;4.03;;;;;;;-140.05;100.00;61859.38;5109718;28;20198;-61
2022/06/08 04:53:50;;;;;;;1.20;1.10;;;;;;;-140.05;100.00;61859.38;5109720;28;20283;-61
2022/06/08 04:56:19;;;;;;;1.93;1.83;;;;;;;-140.05;100.00;61859.38;5111319;27;20202;-62
2022/06/08 04:58:54;;;;;;;1.03;1.03;;;;;;;-140.05;100.00;61859.38;5109718;28;20213;-62
2022/06/08 05:01:24;;;;;;;0.63;0.60;;;;;;;-140.05;100.00;61859.38;5109661;28;20700;-62
2022/06/08 05:03:52;;;;;;;0.50;0.50;;;;;;;-140.05;100.00;61859.38;5109967;28;20272;-62
2022/06/08 05:06:20;;;;;;;0.83;0.60;;;;;;;-140.05;100.00;61859.38;5109542;28;20312;-62
2022/06/08 05:08:48;;;;;;;0.53;0.53;;;;;;;-140.05;100.00;61859.38;5109493;28;20202;-63
2022/06/08 05:11:19;;;;;;;7.63;6.27;;;;;;;-140.05;100.00;61859.38;5108425;28;20210;-63
2022/06/08 05:13:47;;;;;;;1.87;1.77;;;;;;;-140.05;100.00;61859.38;5109525;28;20606;-63
2022/06/08 05:16:15;;;;;;;5.43;4.47;;;;;;;-140.05;100.00;61859.38;5109445;28;20566;-63
2022/06/08 05:18:47;;;;;;;1.70;1.60;;;;;;;-140.05;100.00;61859.38;5109472;28;20289;-61
2022/06/08 05:21:17;;;;;;;0.70;0.70;;;;;;;-140.05;100.00;61859.38;5109469;28;20198;-62
2022/06/08 05:23:47;;;;;;;0.80;0.80;;;;;;;-140.05;100.00;61859.38;5109602;28;20202;-63
2022/06/08 05:26:21;;;;;;;1.50;1.40;;;;;;;-140.05;100.00;61859.38;5109269;28;20238;-61
2022/06/08 05:28:47;;;;;;;1.70;0.50;;;;;;;-140.05;100.00;61859.38;5109375;28;20198;-62
2022/06/08 05:31:16;;;;;;;0.87;0.87;;;;;;;-140.05;100.00;61859.38;5109287;28;20201;-60
2022/06/08 05:33:45;;;;;;;0.90;0.70;;;;;;;-140.05;100.00;61859.38;5109296;28;20282;-61
2022/06/08 05:36:18;;;;;;;0.93;0.93;;;;;;;-140.05;100.00;61859.38;5109206;28;20214;-63
2022/06/08 05:38:48;;;;;;;0.37;0.37;;;;;;;-140.05;100.00;61859.38;5109123;28;20228;-61
2022/06/08 05:41:17;;;;;;;1.03;1.03;;;;;;;-140.05;100.00;61859.38;5109095;28;20210;-63
2022/06/08 05:43:44;;;;;;;0.60;0.47;;;;;;;-140.05;100.00;61859.38;5109003;28;20206;-60
2022/06/08 05:46:12;;;;;;;0.57;0.57;;;;;;;-140.05;100.00;61859.38;5108978;28;20247;-60
2022/06/08 05:48:43;;;;;;;1.23;1.13;;;;;;;-140.05;100.00;61859.38;5109147;28;20195;-63
2022/06/08 05:51:12;;;;;;;0.50;0.50;;;;;;;-140.05;100.00;61859.38;5109095;28;20807;-64
2022/06/08 05:53:40;;;;;;;0.50;0.50;;;;;;;-140.05;100.00;61859.38;5109364;28;20202;-63
2022/06/08 05:56:08;;;;;;;2.53;1.07;;;;;;;-140.05;100.00;61859.38;5109474;28;20198;-61
2022/06/08 05:58:39;;;;;;;1.40;0.73;;;;;;;-140.05;100.00;61859.38;5109528;28;20199;-62
2022/06/08 06:01:07;;;;;;;1.67;0.67;;;;;;;-140.05;100.00;61859.38;5108697;28;20267;-61
2022/06/08 06:03:34;;;;;;;0.30;0.30;;;;;;;-140.05;100.00;61859.38;5109137;28;20201;-62
2022/06/08 06:06:01;;;;;;;0.40;0.40;;;;;;;-140.05;100.00;61859.38;5108889;28;20273;-60
2022/06/08 06:08:30;;;;;;;0.47;0.47;;;;;;;-140.05;100.00;61859.38;5110122;28;20225;-61
2022/06/08 06:11:03;;;;;;;0.57;0.57;;;;;;;-140.05;100.00;61859.38;5108447;28;20229;-62
2022/06/08 06:13:34;;;;;;;0.77;0.53;;;;;;;-140.05;100.00;61859.38;5109177;28;20201;-61
2022/06/08 06:16:02;;;;;;;1.20;0.73;;;;;;;-140.05;100.00;61859.38;5113247;28;20209;-62
2022/06/08 06:18:31;;;;;;;0.97;0.57;;;;;;;-140.05;100.00;61859.38;5111196;28;20255;-61
2022/06/08 06:21:25;;;;;;;0.30;0.30;;;;;;;-140.05;100.00;61859.38;5109041;28;20591;-62
2022/06/08 06:24:12;;;;;;;0.40;0.40;;;;;;;-140.05;100.00;61859.38;5098102;28;20213;-62
2022/06/08 06:27:09;;;;;;;0.33;0.33;;;;;;;-140.05;100.00;61859.38;5093820;28;20198;-61
2022/06/08 06:29:54;;;;;;;3.20;1.90;;;;;;;-140.05;100.00;61859.38;5110154;28;20192;-62
2022/06/08 06:32:47;;;;;;;0.50;0.50;;;;;;;-140.05;100.00;61859.38;5110344;28;20206;-60
2022/06/08 06:35:25;;;;;;;0.83;0.70;;;;;;;-140.05;100.00;61859.38;5110432;28;20230;-61
2022/06/08 06:37:56;;;;;;;0.30;0.30;;;;;;;-140.05;100.00;61859.38;5108326;28;20428;-61
2022/06/08 06:40:25;;;;;;;0.60;0.60;;;;;;;-140.05;100.00;61859.38;5108261;28;20664;-62
2022/06/08 06:42:51;;;;;;;0.43;0.43;;;;;;;-140.05;100.00;61859.38;5108286;28;20879;-61
2022/06/08 06:45:44;;;;;;;0.40;0.40;;;;;;;-140.05;100.00;61859.38;5093156;28;20207;-60
2022/06/08 06:48:38;;;;;;;0.30;0.30;;;;;;;-140.05;100.00;61859.38;5093571;28;20213;-59
2022/06/08 06:51:07;;;;;;;0.80;0.80;;;;;;;-140.05;100.00;61859.38;5108192;28;20464;-60
2022/06/08 06:53:34;;;;;;;0.60;0.47;;;;;;;-140.05;100.00;61859.38;5108314;28;20186;-60
2022/06/08 06:56:03;;;;;;;0.40;0.40;;;;;;;-140.05;100.00;61859.38;5107977;28;20305;-62
2022/06/08 06:58:37;;;;;;;0.40;0.40;;;;;;;-140.05;100.00;61859.38;5108270;28;20282;-61
2022/06/08 07:01:06;;;;;;;1.13;1.07;;;;;;;-140.05;100.00;61859.38;5107857;28;20630;-61
2022/06/08 07:03:35;;;;;;;0.53;0.40;;;;;;;-140.05;100.00;61859.38;5108485;28;20979;-60
2022/06/08 07:06:02;;;;;;;0.47;0.47;;;;;;;-140.05;100.00;61859.38;5107989;28;20201;-61
2022/06/08 07:08:30;;;;;;;1.20;0.70;;;;;;;-140.05;100.00;61859.38;5108189;28;20194;-59
2022/06/08 07:13:46;;;;;;;0.63;0.60;;;;;;;-140.05;100.00;61859.38;5109632;28;20737;-62
2022/06/08 07:16:13;;;;;;;0.50;0.50;;;;;;;-140.05;100.00;61859.38;5108039;28;20206;-59
2022/06/08 07:18:40;;;;;;;0.60;0.60;;;;;;;-140.05;100.00;61859.38;5108302;28;20203;-61
2022/06/08 07:21:09;;;;;;;1.47;1.00;;;;;;;-140.05;100.00;61859.38;5107545;28;20195;-60
2022/06/08 07:23:35;;;;;;;0.63;0.63;;;;;;;-140.05;100.00;61859.38;5109382;28;20187;-59
2022/06/08 07:26:02;;;;;;;0.40;0.40;;;;;;;-140.05;100.00;61859.38;5109192;28;20620;-58
2022/06/08 07:28:29;;;;;;;0.30;0.30;;;;;;;-140.05;100.00;61859.38;5109351;28;20174;-60
2022/06/08 07:30:56;;;;;;;0.40;0.40;;;;;;;-140.05;100.00;61859.38;5109374;28;20187;-61
2022/06/08 07:33:23;;;;;;;0.63;0.50;;;;;;;-140.05;100.00;61859.38;5109787;28;20191;-60
2022/06/08 07:35:50;;;;;;;0.30;0.30;;;;;;;-140.05;100.00;61859.38;5111309;28;20716;-60
2022/06/08 07:38:20;;;;;;;0.70;0.60;;;;;;;-140.05;100.00;61859.38;5113187;28;20235;-64
2022/06/08 07:40:47;;;;;;;0.63;0.60;;;;;;;-140.05;100.00;61859.38;5112647;28;20601;-62
2022/06/08 07:43:14;;;;;;;0.30;0.30;;;;;;;-140.05;100.00;61859.38;5113097;28;20209;-61
2022/06/08 07:45:42;;;;;;;0.40;0.40;;;;;;;-140.05;100.00;61859.38;5113326;28;20716;-60
2022/06/08 07:50:55;;;;;;;0.30;0.30;;;;;;;-140.05;100.00;61859.38;5112399;28;20688;-61
2022/06/08 07:53:21;;;;;;;1.67;1.43;;;;;;;-140.05;100.00;61859.38;5112679;28;20175;-60
2022/06/08 07:55:49;;;;;;;0.30;0.30;;;;;;;-140.05;100.00;61859.38;5112610;28;20256;-63
2022/06/08 07:58:16;;;;;;;0.30;0.30;;;;;;;-140.05;100.00;61859.38;5112644;28;20251;-62
2022/06/08 08:00:46;;;;;;;0.30;0.30;;;;;;;-140.05;100.00;61859.38;5112957;28;20195;-59
2022/06/08 08:03:15;;;;;;;0.63;0.47;;;;;;;-140.05;100.00;61859.38;5112737;28;20198;-61
2022/06/08 08:05:44;;;;;;;0.77;0.57;;;;;;;-140.05;100.00;61859.38;5112643;27;20218;-61
2022/06/08 08:08:12;;;;;;;0.37;0.37;;;;;;;-140.05;100.00;61859.38;5112442;28;20183;-61
2022/06/08 08:10:39;;;;;;;0.40;0.40;;;;;;;-140.05;100.00;61859.38;5111844;28;20260;-62
2022/06/08 08:13:08;;;;;;;0.20;0.20;;;;;;;-140.05;100.00;61859.38;5112164;28;20737;-64
2022/06/08 08:15:35;;;;;;;0.87;0.87;;;;;;;-140.05;100.00;61859.38;5112228;28;20275;-62
2022/06/08 08:18:03;;;;;;;0.40;0.40;;;;;;;-140.05;100.00;61859.38;5112408;28;20194;-59
2022/06/08 08:20:30;;;;;;;0.57;0.57;;;;;;;-140.05;100.00;61859.38;5111813;28;20653;-62
2022/06/08 08:22:58;;;;;;;0.60;0.60;;;;;;;-140.05;100.00;61859.38;5112201;28;20209;-59
2022/06/08 08:25:27;;;;;;;0.37;0.37;;;;;;;-140.05;100.00;61859.38;5111970;28;20717;-61
2022/06/08 08:27:57;;;;;;;0.20;0.20;;;;;;;-140.05;100.00;61859.38;5112173;28;20263;-62
2022/06/08 08:30:26;;;;;;;0.40;0.40;;;;;;;-140.05;100.00;61859.38;5111820;28;20210;-60
2022/06/08 08:32:53;;;;;;;0.53;0.53;;;;;;;-140.05;100.00;61859.38;5111844;28;20603;-61
2022/06/08 08:35:21;;;;;;;0.30;0.30;;;;;;;-140.05;100.00;61859.38;5111969;28;20206;-60
2022/06/08 08:37:49;;;;;;;0.20;0.20;;;;;;;-140.05;100.00;61859.38;5111807;28;20206;-61
2022/06/08 08:40:41;;;;;;;0.67;0.40;;;;;;;-140.05;100.00;61859.38;5111849;28;20253;-62
2022/06/08 08:43:11;;;;;;;0.50;0.40;;;;;;;-140.05;100.00;61859.38;5111412;28;20232;-59
2022/06/08 08:46:22;;;;;;;2.63;1.20;;;;;;;-140.05;100.00;61859.38;5111279;28;20604;-62
2022/06/08 08:48:54;;;;;;;0.37;0.30;;;;;;;-140.05;100.00;61859.38;5110952;28;20660;-61
2022/06/08 08:51:28;;;;;;;0.97;0.97;;;;;;;-140.05;100.00;61859.38;5111501;28;20304;-62
2022/06/08 08:54:10;;;;;;;0.30;0.30;;;;;;;-140.05;100.00;61859.38;5111590;28;20202;-60
2022/06/08 08:56:39;;;;;;;1.03;0.93;;;;;;;-140.05;100.00;61859.38;5111277;28;20203;-60
2022/06/08 08:59:13;;;;;;;0.40;0.40;;;;;;;-140.05;100.00;61859.38;5111124;28;20193;-63
2022/06/08 09:01:42;;;;;;;0.30;0.30;;;;;;;-140.05;100.00;61859.38;5111336;28;20532;-62
2022/06/08 09:04:17;;;;;;;0.70;0.70;;;;;;;-140.05;100.00;61859.38;5111203;28;20214;-60
2022/06/08 09:06:44;;;;;;;0.70;0.70;;;;;;;-140.05;100.00;61859.38;5109763;28;20284;-60
2022/06/08 09:09:23;;;;;;;4.70;0.87;;;;;;;-140.05;100.00;61859.38;5111226;28;20195;-58
2022/06/08 09:11:51;;;;;;;0.50;0.50;;;;;;;-140.05;100.00;61859.38;5111327;28;20259;-61
2022/06/08 09:15:04;;;;;;;0.50;0.50;;;;;;;-140.05;100.00;61859.38;5110808;28;20661;-60
2022/06/08 09:17:52;;;;;;;0.40;0.40;;;;;;;-140.05;100.00;61859.38;5108960;28;20263;-63
2022/06/08 09:20:35;;;;;;;0.20;0.20;;;;;;;-140.05;100.00;61859.38;5110631;28;20696;-60
2022/06/08 09:23:21;;;;;;;0.60;0.53;;;;;;;-140.05;100.00;61859.38;5111187;28;20205;-61
2022/06/08 09:26:13;;;;;;;0.20;0.20;;;;;;;-140.05;100.00;61859.38;5110607;28;20241;-61
2022/06/08 09:28:41;;;;;;;0.50;0.50;;;;;;;-140.05;100.00;61859.38;5110898;28;20202;-61
2022/06/08 09:31:31;;;;;;;0.20;0.20;;;;;;;-140.05;100.00;61859.38;5110709;28;20202;-60
2022/06/08 09:34:25;;;;;;;0.43;0.40;;;;;;;-140.05;100.00;61859.38;5110643;28;20578;-60
2022/06/08 09:37:20;;;;;;;0.73;0.50;;;;;;;-140.05;100.00;61859.38;5110967;28;20214;-62
2022/06/08 09:39:47;;;;;;;0.60;0.60;;;;;;;-140.05;100.00;61859.38;5112279;28;20183;-60
2022/06/08 09:42:21;;;;;;;0.20;0.20;;;;;;;-140.05;100.00;61859.38;5110987;28;20209;-62
2022/06/08 09:45:16;;;;;;;0.53;0.53;;;;;;;-140.05;100.00;61859.38;5110790;28;20278;-62
2022/06/08 09:53:50;;;;;;;0.30;0.30;;;;;;;-140.05;100.00;61859.38;5110639;28;20574;-60
2022/06/08 09:56:17;;;;;;;0.30;0.30;;;;;;;-140.05;100.00;61859.38;5110727;28;20305;-65
2022/06/08 09:59:11;;;;;;;0.30;0.30;;;;;;;-140.05;100.00;61859.38;5109974;28;20187;-61
2022/06/08 10:02:15;;;;;;;0.53;0.40;;;;;;;-140.05;100.00;61859.38;5110218;28;20198;-60
2022/06/08 10:05:22;;;;;;;0.20;0.20;;;;;;;-140.05;100.00;61859.38;5110008;28;20677;-63
2022/06/08 10:08:15;;;;;;;0.23;0.23;;;;;;;-140.05;100.00;61859.38;5073010;28;20198;-59
2022/06/08 10:10:55;;;;;;;0.30;0.30;;;;;;;-140.05;100.00;61859.38;5110261;27;20186;-64
2022/06/08 10:13:49;;;;;;;0.30;0.30;;;;;;;-140.05;100.00;61859.38;5110147;28;20206;-61
2022/06/08 10:16:20;;;;;;;0.57;0.33;;;;;;;-140.05;100.00;61859.38;5109639;28;20233;-61
2022/06/08 10:19:05;;;;;;;0.53;0.53;;;;;;;-140.05;100.00;61859.38;5109928;28;20202;-62
2022/06/08 10:21:38;;;;;;;0.30;0.30;;;;;;;-140.05;100.00;61859.38;5109676;28;20182;-62
2022/06/08 10:24:05;;;;;;;0.30;0.30;;;;;;;-140.05;100.00;61859.38;5110344;28;20191;-59
2022/06/08 10:26:46;;;;;;;0.40;0.40;;;;;;;-140.05;100.00;61859.38;5109918;28;20661;-60
2022/06/08 10:29:25;;;;;;;0.43;0.43;;;;;;;-140.05;100.00;61859.38;5109761;28;20197;-62
2022/06/08 10:32:14;;;;;;;0.73;0.70;;;;;;;-140.05;100.00;61859.38;5109920;28;20204;-61
2022/06/08 10:34:41;;;;;;;0.30;0.30;;;;;;;-140.05;100.00;61859.38;5108420;28;20665;-60
2022/06/08 10:37:15;;;;;;;0.23;0.23;;;;;;;-140.05;100.00;61859.38;5110036;28;20202;-62
2022/06/08 10:39:43;;;;;;;0.57;0.57;;;;;;;-140.05;100.00;61859.38;5109962;28;20178;-61
2022/06/08 10:42:40;;;;;;;0.30;0.30;;;;;;;-140.05;100.00;61859.38;5109650;28;20240;-62
2022/06/08 10:45:23;;;;;;;0.73;0.73;;;;;;;-140.05;100.00;61859.38;5109698;28;20248;-58
2022/06/08 10:48:11;;;;;;;0.50;0.50;;;;;;;-140.05;100.00;61859.38;5109909;28;20736;-62
2022/06/08 10:50:39;;;;;;;0.40;0.40;;;;;;;-140.05;100.00;61859.38;5109552;28;20207;-63
2022/06/08 10:56:34;;;;;;;0.20;0.20;;;;;;;-140.05;100.00;61859.38;5109509;28;20226;-61
2022/06/08 10:59:07;;;;;;;0.30;0.30;;;;;;;-140.05;100.00;61859.38;5109735;28;20255;-62
2022/06/08 11:01:54;;;;;;;0.50;0.40;;;;;;;-140.05;100.00;61859.38;5109067;28;20186;-62
2022/06/08 11:04:34;;;;;;;0.27;0.27;;;;;;;-140.05;100.00;61859.38;5102122;28;20213;-62
2022/06/08 11:07:04;;;;;;;0.40;0.40;;;;;;;-140.05;100.00;61859.38;5109687;28;20202;-62
2022/06/08 11:09:33;;;;;;;0.40;0.40;;;;;;;-140.05;100.00;61859.38;5108523;28;20207;-60
2022/06/08 11:12:13;;;;;;;0.50;0.50;;;;;;;-140.05;100.00;61859.38;5111996;28;20194;-62
2022/06/08 11:14:50;;;;;;;0.33;0.33;;;;;;;-140.05;100.00;61859.38;5113553;28;20201;-60
2022/06/08 11:17:35;;;;;;;1.40;0.67;;;;;;;-140.05;100.00;61859.38;5111943;28;20193;-61
2022/06/08 11:20:19;;;;;;;1.00;0.90;;;;;;;-140.05;100.00;61859.38;5113017;28;20194;-59
2022/06/08 11:23:01;;;;;;;0.23;0.23;;;;;;;-140.05;100.00;61859.38;5113457;28;20206;-63
2022/06/08 11:25:43;;;;;;;1.80;1.40;;;;;;;-140.05;100.00;61859.38;5113252;28;20230;-62
2022/06/08 11:28:34;;;;;;;0.50;0.50;;;;;;;-140.05;100.00;61859.38;5113217;28;20216;-59
2022/06/08 11:31:09;;;;;;;0.60;0.60;;;;;;;-140.05;100.00;61859.38;5112758;28;20649;-61
2022/06/08 11:34:01;;;;;;;0.50;0.50;;;;;;;-140.05;100.00;61859.38;5112970;28;20209;-59
2022/06/08 11:36:43;;;;;;;0.40;0.40;;;;;;;-140.05;100.00;61859.38;5113050;28;20230;-64
2022/06/08 11:39:19;;;;;;;0.33;0.33;;;;;;;-140.05;100.00;61859.38;5112919;28;20214;-62
2022/06/08 11:42:00;;;;;;;0.50;0.40;;;;;;;-140.05;100.00;61859.38;5112843;28;20255;-63
2022/06/08 11:44:33;;;;;;;0.50;0.50;;;;;;;-140.05;100.00;61859.38;5112714;28;20186;-60
2022/06/08 11:47:26;;;;;;;0.50;0.40;;;;;;;-140.05;100.00;61859.38;5112572;28;20472;-60
2022/06/08 11:50:00;;;;;;;0.30;0.30;;;;;;;-140.05;100.00;61859.38;5112490;28;20198;-62
2022/06/08 11:52:34;;;;;;;0.40;0.40;;;;;;;-140.05;100.00;61859.38;5111131;28;20748;-63
2022/06/08 11:55:03;;;;;;;0.33;0.33;;;;;;;-140.05;100.00;61859.38;5112830;28;20190;-63
2022/06/08 11:57:32;;;;;;;0.40;0.40;;;;;;;-140.05;100.00;61859.38;5113126;28;20239;-59
2022/06/08 12:00:00;;;;;;;0.40;0.40;;;;;;;-140.05;100.00;61859.38;5112782;28;20197;-61